Getzville 2E NY

43° 01' 25"N, 78° 44' 55"W, Elevation 589 ft.
Eastern Time

Hourly observations for the last 72 hours

Date Time Temperature (°F) Humi-
dity

(%)
Wind
(mph)
Pressure Rain (in) Sun
(W/m2)
ET
(in)
Air Dew 6 Hour 1 Hr 3 Hr 6 Hr Day
Alt
(in)
Sea
Level

(mb)
Max Min
16 06:00 56.6 47.3 71 SSW 1 G 3 29.61 1002.7 0.00 0 0.001
16 05:00 53.2 46.5 78 SW 0 G 3 29.65 1004.2 0.00 0 0.000
16 04:00 48.1 44.7 88 E 0 G 1 29.69 1005.3 0.00 0 0.000
16 03:00 45.9 43.4 91 E 0 G 1 29.71 1006.3 0.00 0 0.000
16 02:00 44.7 41.9 50.6 43.4 90 Calm 29.75 1007.4 0.00 0 0.000
16 01:00 43.7 40.7 89 Calm 29.78 1008.7 0.00 0 0.000
16 00:00 44.9 41.3 87 Calm 29.81 1009.7 0.00 0 0.065
15 23:00 46.8 41.9 83 Calm 29.85 1011.0 0.00 0 0.065
15 22:00 49.2 43.3 80 E 0 G 4 29.87 1011.7 0.00 0 0.064
15 21:00 49.6 43.4 79 E 5 G 12 29.91 1012.8 0.00 0 0.063
15 20:00 50.6 43.0 60.2 50.6 75 E 3 G 6 29.95 1014.4 0.00 0 0.062
15 19:00 53.6 43.7 69 E 0 G 1 29.94 1014.1 0.00 0 0.062
15 18:00 58.8 44.5 59 ENE 2 G 4 29.94 1014.0 0.00 35 0.060
15 17:00 60.0 44.3 56 E 2 G 6 29.96 1014.6 0.00 79 0.056
15 16:00 58.7 44.0 58 NW 1 G 3 29.98 1015.4 0.00 76 0.054
15 15:00 58.5 44.7 60 WNW 1 G 6 30.01 1016.4 0.00 72 0.050
15 14:00 59.6 45.3 59.6 34.0 59 W 2 G 8 30.05 1017.5 0.00 735 0.034
15 13:00 57.1 44.2 62 SW 3 G 6 30.09 1018.9 0.00 775 0.018
15 12:00 55.3 42.9 63 WSW 3 G 10 30.11 1019.8 0.00 751 0.005
15 11:00 50.6 42.3 73 SW 1 G 4 30.14 1020.7 0.00 176 0.002
15 10:00 44.4 41.7 90 ESE 1 G 3 30.15 1020.9 0.00 109 0.001
15 09:00 37.3 35.5 93 Calm 30.15 1021.1 0.00 63 0.000
15 08:00 34.0 31.9 42.2 33.9 92 Calm 30.16 1021.3 0.00 26 0.000
15 07:00 34.3 32.2 92 Calm 30.15 1021.0 0.00 0 0.000
15 06:00 35.2 32.8 91 Calm 30.14 1020.5 0.00 0 0.000
15 05:00 36.4 34.0 91 Calm 30.14 1020.6 0.00 0 0.000
15 04:00 38.0 35.0 89 Calm 30.13 1020.2 0.00 0 0.000
15 03:00 40.6 37.0 87 Calm 30.13 1020.2 0.00 0 0.000
15 02:00 42.2 38.3 43.2 40.2 86 Calm 30.12 1019.9 0.00 0 0.000
15 01:00 42.4 38.2 85 Calm 30.11 1019.6 0.00 0 0.000
15 00:00 42.4 38.5 86 Calm 30.09 1019.2 0.00 0 0.036
14 23:00 41.9 38.0 86 Calm 30.09 1019.1 0.00 0 0.036
14 22:00 40.5 36.3 85 Calm 30.09 1018.9 0.00 0 0.036
14 21:00 40.7 35.6 82 Calm 30.07 1018.4 0.00 0 0.036
14 20:00 43.2 36.8 51.1 43.2 78 WSW 0 G 1 30.06 1018.0 0.00 0 0.035
14 19:00 46.1 37.9 73 WSW 0 G 1 30.05 1017.5 0.00 0 0.035
14 18:00 49.5 37.8 64 W 1 G 12 30.03 1017.0 0.00 33 0.033
14 17:00 50.6 38.5 63 WNW 1 G 8 30.01 1016.3 0.00 91 0.030
14 16:00 51.0 37.6 60 WNW 1 G 10 30.00 1016.0 0.00 142 0.026
14 15:00 50.7 38.6 63 W 2 G 9 29.98 1015.4 0.00 165 0.022
14 14:00 50.1 37.6 50.1 46.7 62 WNW 3 G 7 29.98 1015.4 0.00 200 0.018
14 13:00 48.7 37.1 64 SW 3 G 7 29.99 1015.6 0.00 135 0.014
14 12:00 49.2 37.1 63 W 3 G 7 29.98 1015.3 0.00 169 0.010
14 11:00 48.1 38.8 70 W 1 G 7 29.97 1015.0 0.00 114 0.008
14 10:00 46.9 37.6 70 WNW 1 G 8 29.96 1014.5 0.00 77 0.007
14 09:00 47.2 39.7 75 NW 1 G 4 29.94 1013.9 0.00 91 0.005
14 08:00 47.0 39.1 50.2 46.3 74 W 6 G 14 29.93 1013.4 0.00 42 0.004
14 07:00 46.6 41.4 82 Calm 29.90 1012.4 0.00 0 0.003
14 06:00 48.2 41.0 76 W 1 G 3 29.88 1011.8 0.00 0 0.002
14 05:00 47.9 44.5 88 Calm 29.87 1011.4 0.00 0 0.002
14 04:00 48.1 44.1 86 Calm 29.86 1011.2 0.00 0 0.002
14 03:00 48.8 44.2 84 ESE 0 G 2 29.85 1010.9 0.00 0 0.002
14 02:00 50.2 43.9 58.0 50.2 79 Calm 29.86 1011.1 0.00 0 0.001
14 01:00 52.1 44.4 75 WNW 0 G 5 29.86 1011.1 0.00 0 0.000
14 00:00 57.6 38.6 49 WNW 3 G 6 29.83 1010.3 0.00 0 0.082
13 23:00 57.3 37.3 47 SSW 2 G 6 29.83 1010.0 0.00 0 0.080
13 22:00 55.8 36.9 49 ESE 1 G 5 29.83 1010.1 0.00 0 0.078
13 21:00 51.5 36.8 57 SE 0 G 2 29.83 1010.2 0.00 0 0.077
13 20:00 52.5 38.2 65.6 52.5 58 Calm 29.82 1010.0 0.00 0 0.076
13 19:00 57.6 37.0 46 Calm 29.83 1010.1 0.00 0 0.075
13 18:00 61.9 38.0 41 SSE 2 G 3 29.82 1009.9 0.00 23 0.073
13 17:00 65.1 38.2 37 WSW 3 G 7 29.82 1009.9 0.00 56 0.068
13 16:00 64.0 39.2 40 SSW 1 G 6 29.85 1010.7 0.00 54 0.064
13 15:00 63.1 40.3 43 S 1 G 9 29.86 1011.4 0.00 306 0.056
13 14:00 63.6 39.5 63.6 38.1 41 SSW 1 G 11 29.90 1012.5 0.00 770 0.038
13 13:00 60.1 40.9 49 WSW 4 G 9 29.95 1014.1 0.00 812 0.020
13 12:00 56.9 40.4 54 SW 4 G 10 29.98 1015.2 0.00 786 0.005
13 11:00 51.9 40.5 65 SW 1 G 9 30.00 1016.0 0.00 125 0.002
13 10:00 48.4 38.7 69 SW 2 G 6 30.01 1016.4 0.00 60 0.001
13 09:00 43.0 36.0 76 SSW 2 G 5 30.03 1016.8 0.00 42 0.000
13 08:00 38.1 34.0 42.0 37.1 85 SSW 0 G 2 30.03 1016.9 0.00 21 0.000
13 07:00 37.3 33.2 85 Calm 30.03 1017.1 0.00 0 0.000

Data generated by WxSolution Version 1.9.1.5, Build 2018.05.20.